Time;durP1;ratioP1;P1;durP2;ratioP2;P2;SDS_P1;SDS_P2;PMS_P1;PMS_P2;Temp;Humidity;BMP_temperature;BMP_pressure;BME280_temperature;BME280_humidity;BME280_pressure;Samples;Min_cycle;Max_cycle;Signal;HPM_P1;HPM_P2
2022/11/17 00:00:35;;;;;;;140.32;77.72;;;;;;;;;;4997606;28;20034;-78
2022/11/17 00:03:20;;;;;;;217.93;128.00;;;;;;;;;;5003357;28;20062;-77
2022/11/17 00:06:06;;;;;;;164.93;90.47;;;;;;;;;;4996980;28;20387;-76
2022/11/17 00:08:52;;;;;;;171.82;97.10;;;;;;;;;;4996789;28;20046;-78
2022/11/17 00:14:41;;;;;;;139.48;79.95;;;;;;;;;;5000839;28;20042;-78
2022/11/17 00:17:27;;;;;;;168.55;94.32;;;;;;;;;;4996504;28;20488;-77
2022/11/17 00:23:17;;;;;;;181.10;104.50;;;;;;;;;;4996733;28;20046;-76
2022/11/17 00:26:03;;;;;;;184.65;105.47;;;;;;;;;;4996741;28;20476;-76
2022/11/17 00:28:53;;;;;;;180.77;102.35;;;;;;;;;;4996963;28;20042;-78
2022/11/17 00:34:41;;;;;;;171.45;95.53;;;;;;;;;;4997470;28;20046;-76
2022/11/17 00:37:36;;;;;;;167.93;97.95;;;;;;;;;;4997537;28;20042;-77
2022/11/17 00:40:26;;;;;;;175.02;100.93;;;;;;;;;;4999392;28;20034;-76
2022/11/17 00:43:11;;;;;;;171.05;95.95;;;;;;;;;;4991492;28;20042;-76
2022/11/17 00:45:57;;;;;;;173.32;100.75;;;;;;;;;;4996957;28;20046;-78
2022/11/17 00:48:49;;;;;;;175.70;97.22;;;;;;;;;;4996033;28;20038;-77
2022/11/17 00:51:35;;;;;;;160.95;94.93;;;;;;;;;;4996260;28;20050;-75
2022/11/17 00:54:21;;;;;;;163.82;91.97;;;;;;;;;;4996362;28;20042;-78
2022/11/17 00:57:07;;;;;;;170.82;95.60;;;;;;;;;;4999459;28;20399;-76
2022/11/17 00:59:53;;;;;;;179.40;98.22;;;;;;;;;;5007087;28;20046;-76
2022/11/17 01:02:38;;;;;;;188.80;102.95;;;;;;;;;;5005234;28;20051;-76
2022/11/17 01:05:24;;;;;;;188.15;105.57;;;;;;;;;;5002794;28;20042;-75
2022/11/17 01:08:09;;;;;;;197.70;107.60;;;;;;;;;;4995509;28;20046;-77
2022/11/17 01:10:55;;;;;;;196.88;109.63;;;;;;;;;;4995882;28;20050;-76
2022/11/17 01:13:41;;;;;;;192.85;110.53;;;;;;;;;;4999239;28;20050;-77
2022/11/17 01:16:28;;;;;;;188.93;106.53;;;;;;;;;;4996696;28;20038;-77
2022/11/17 01:19:14;;;;;;;167.73;98.97;;;;;;;;;;4999770;28;20054;-77
2022/11/17 01:22:00;;;;;;;179.07;100.40;;;;;;;;;;5004227;28;20046;-77
2022/11/17 01:24:45;;;;;;;171.70;96.28;;;;;;;;;;4998676;28;20042;-77
2022/11/17 01:27:30;;;;;;;178.48;96.40;;;;;;;;;;5005968;28;20476;-77
2022/11/17 01:30:17;;;;;;;173.80;95.40;;;;;;;;;;5000459;28;20054;-77
2022/11/17 01:33:02;;;;;;;172.90;88.90;;;;;;;;;;4998533;28;20054;-77
2022/11/17 01:35:47;;;;;;;172.60;92.45;;;;;;;;;;4996558;28;20046;-76
2022/11/17 01:38:33;;;;;;;169.30;89.20;;;;;;;;;;4994695;28;20050;-78
2022/11/17 01:41:25;;;;;;;170.52;82.05;;;;;;;;;;4994825;28;20396;-77
2022/11/17 01:44:48;;;;;;;183.15;89.15;;;;;;;;;;4998767;28;20042;-78
2022/11/17 01:47:57;;;;;;;144.05;75.55;;;;;;;;;;5003510;28;20054;-78
2022/11/17 01:50:48;;;;;;;116.47;63.00;;;;;;;;;;5001420;28;20046;-78
2022/11/17 01:53:34;;;;;;;113.55;62.10;;;;;;;;;;4998212;28;20050;-78
2022/11/17 01:56:26;;;;;;;129.77;74.75;;;;;;;;;;5000968;28;20054;-77
2022/11/17 01:59:40;;;;;;;127.10;69.32;;;;;;;;;;4999349;28;20415;-76
2022/11/17 02:02:25;;;;;;;118.85;63.25;;;;;;;;;;4982323;28;20050;-78
2022/11/17 02:05:29;;;;;;;118.43;63.17;;;;;;;;;;4994521;28;20495;-78
2022/11/17 02:08:15;;;;;;;106.93;61.47;;;;;;;;;;4994207;28;20046;-77
2022/11/17 02:11:03;;;;;;;109.32;61.58;;;;;;;;;;4994298;28;20050;-76
2022/11/17 02:13:52;;;;;;;107.85;59.33;;;;;;;;;;4994624;28;20046;-77
2022/11/17 02:16:37;;;;;;;80.90;46.38;;;;;;;;;;4994749;28;20046;-76
2022/11/17 02:19:26;;;;;;;50.65;25.38;;;;;;;;;;4994856;28;20376;-76
2022/11/17 02:22:36;;;;;;;87.82;51.25;;;;;;;;;;4994487;28;20042;-76
2022/11/17 02:26:06;;;;;;;74.80;41.00;;;;;;;;;;4994425;28;20391;-77
2022/11/17 02:29:00;;;;;;;70.90;41.08;;;;;;;;;;5000573;28;20050;-76
2022/11/17 02:31:58;;;;;;;83.35;44.90;;;;;;;;;;4994922;28;20042;-76
2022/11/17 02:34:53;;;;;;;70.28;37.17;;;;;;;;;;4994338;28;20050;-76
2022/11/17 02:37:51;;;;;;;84.88;43.80;;;;;;;;;;4994789;28;20042;-77
2022/11/17 02:40:59;;;;;;;83.78;43.13;;;;;;;;;;4994416;28;20050;-76
2022/11/17 02:44:04;;;;;;;93.93;46.75;;;;;;;;;;4979926;28;20047;-76
2022/11/17 02:47:00;;;;;;;91.50;44.95;;;;;;;;;;4994185;28;20403;-77
2022/11/17 02:49:51;;;;;;;94.00;46.33;;;;;;;;;;4993973;28;20491;-76
2022/11/17 02:52:37;;;;;;;85.93;44.10;;;;;;;;;;4993887;28;20047;-77
2022/11/17 02:55:22;;;;;;;81.45;40.10;;;;;;;;;;4993972;28;20042;-77
2022/11/17 02:58:11;;;;;;;72.68;36.72;;;;;;;;;;4993870;28;20046;-78
2022/11/17 03:01:21;;;;;;;79.70;36.45;;;;;;;;;;4985836;28;20042;-77
2022/11/17 03:04:36;;;;;;;80.22;36.65;;;;;;;;;;4994048;28;20050;-77
2022/11/17 03:07:45;;;;;;;83.05;40.80;;;;;;;;;;4995621;28;20058;-76
2022/11/17 03:10:44;;;;;;;79.03;39.03;;;;;;;;;;4990462;28;20050;-75
2022/11/17 03:13:55;;;;;;;72.15;33.15;;;;;;;;;;4993702;28;20038;-76
2022/11/17 03:16:59;;;;;;;53.15;30.55;;;;;;;;;;4994950;28;20046;-75
2022/11/17 03:19:53;;;;;;;52.53;28.92;;;;;;;;;;5000725;28;20400;-76
2022/11/17 03:22:51;;;;;;;50.85;27.40;;;;;;;;;;5003572;28;20042;-75
2022/11/17 03:25:43;;;;;;;46.65;25.30;;;;;;;;;;4997972;28;20046;-76
2022/11/17 03:28:29;;;;;;;34.40;20.13;;;;;;;;;;4997112;28;20038;-75
2022/11/17 03:31:15;;;;;;;35.30;18.05;;;;;;;;;;5007967;28;20034;-75
2022/11/17 03:34:05;;;;;;;19.05;11.98;;;;;;;;;;5016966;28;20049;-76
2022/11/17 03:36:58;;;;;;;10.30;7.47;;;;;;;;;;5016826;28;20042;-76
2022/11/17 03:39:49;;;;;;;11.35;6.82;;;;;;;;;;5017457;28;20045;-76
2022/11/17 03:42:39;;;;;;;14.82;6.18;;;;;;;;;;5016768;28;20046;-77
2022/11/17 03:45:27;;;;;;;11.50;6.05;;;;;;;;;;5016976;28;20042;-75
2022/11/17 03:48:34;;;;;;;6.53;4.90;;;;;;;;;;5016373;28;20045;-76
2022/11/17 03:51:23;;;;;;;6.25;5.15;;;;;;;;;;5016899;28;20042;-75
2022/11/17 03:54:08;;;;;;;9.80;4.97;;;;;;;;;;5023592;28;20046;-76
2022/11/17 03:57:00;;;;;;;9.90;5.47;;;;;;;;;;5016679;28;20050;-77
2022/11/17 04:00:00;;;;;;;8.20;5.20;;;;;;;;;;5016691;28;20046;-77
2022/11/17 04:02:48;;;;;;;11.75;4.85;;;;;;;;;;5023056;28;20054;-77
2022/11/17 04:05:33;;;;;;;25.38;9.48;;;;;;;;;;5016769;28;20038;-77
2022/11/17 04:08:19;;;;;;;12.05;5.93;;;;;;;;;;5016335;28;20045;-76
2022/11/17 04:17:12;;;;;;;9.33;6.33;;;;;;;;;;5016072;28;20050;-76
2022/11/17 04:19:58;;;;;;;11.02;6.85;;;;;;;;;;5016337;28;20046;-76
2022/11/17 04:22:43;;;;;;;11.77;7.57;;;;;;;;;;5022692;28;20391;-76
2022/11/17 04:28:36;;;;;;;11.63;7.60;;;;;;;;;;5016260;28;20054;-76
2022/11/17 04:31:22;;;;;;;17.77;10.25;;;;;;;;;;5015611;28;20046;-76
2022/11/17 04:34:08;;;;;;;13.48;9.25;;;;;;;;;;5016055;28;20050;-76
2022/11/17 04:36:53;;;;;;;18.75;10.00;;;;;;;;;;5022725;28;20034;-76
2022/11/17 04:39:39;;;;;;;18.38;10.68;;;;;;;;;;5015928;28;20050;-76
2022/11/17 04:42:24;;;;;;;21.45;13.40;;;;;;;;;;5015837;28;20045;-76
2022/11/17 04:45:10;;;;;;;27.23;15.27;;;;;;;;;;5022079;28;20046;-76
2022/11/17 04:47:55;;;;;;;29.60;14.85;;;;;;;;;;5015729;28;20054;-77
2022/11/17 04:50:41;;;;;;;26.77;15.95;;;;;;;;;;5015624;28;20479;-76
2022/11/17 04:53:28;;;;;;;26.00;16.33;;;;;;;;;;5015456;28;20037;-77
2022/11/17 04:56:15;;;;;;;26.55;16.35;;;;;;;;;;5021894;28;20045;-77
2022/11/17 04:59:01;;;;;;;23.52;15.27;;;;;;;;;;5015188;28;20490;-75
2022/11/17 05:01:47;;;;;;;22.98;14.32;;;;;;;;;;5015115;28;20034;-75
2022/11/17 05:07:35;;;;;;;22.45;14.00;;;;;;;;;;5014940;28;20042;-75
2022/11/17 05:13:20;;;;;;;28.50;15.75;;;;;;;;;;5021673;28;20490;-75
2022/11/17 05:13:27;;;;;;;34.30;25.38;;;;;;;;;;5021282;28;20042;-75
2022/11/17 05:19:24;;;;;;;14.77;9.75;;;;;;;;;;5014885;28;20072;-76
2022/11/17 05:25:15;;;;;;;;;;;;;;;;;;5022054;28;20038;-75
2022/11/17 05:28:00;;;;;;;14.52;9.70;;;;;;;;;;5014741;28;20366;-75
2022/11/17 05:30:46;;;;;;;19.42;12.80;;;;;;;;;;5014529;28;20046;-75
2022/11/17 05:33:31;;;;;;;21.67;12.68;;;;;;;;;;5021170;28;20046;-76
2022/11/17 05:36:18;;;;;;;20.42;11.23;;;;;;;;;;5015611;28;20479;-75
2022/11/17 05:39:04;;;;;;;12.23;8.57;;;;;;;;;;5014392;28;20050;-77
2022/11/17 05:41:49;;;;;;;26.95;16.27;;;;;;;;;;5014871;28;20046;-75
2022/11/17 05:44:35;;;;;;;27.20;13.77;;;;;;;;;;5014176;28;20475;-75
2022/11/17 05:47:20;;;;;;;22.67;13.07;;;;;;;;;;5020765;28;20050;-76
2022/11/17 05:50:06;;;;;;;21.23;13.52;;;;;;;;;;5014654;28;20045;-77
2022/11/17 05:52:51;;;;;;;16.58;11.52;;;;;;;;;;5014421;28;20058;-76
2022/11/17 05:55:37;;;;;;;18.75;11.27;;;;;;;;;;5014228;28;20045;-76
2022/11/17 05:58:29;;;;;;;19.42;11.93;;;;;;;;;;5014441;28;20084;-77
2022/11/17 06:01:17;;;;;;;17.92;12.85;;;;;;;;;;5014354;28;20403;-77
2022/11/17 06:04:04;;;;;;;20.88;14.27;;;;;;;;;;5014002;28;20049;-77
2022/11/17 06:06:50;;;;;;;19.23;14.02;;;;;;;;;;5014205;28;20050;-77
2022/11/17 06:09:39;;;;;;;27.88;18.58;;;;;;;;;;5013250;28;20045;-77
2022/11/17 06:12:24;;;;;;;42.55;25.27;;;;;;;;;;5013662;28;20480;-77
2022/11/17 06:15:09;;;;;;;44.55;25.58;;;;;;;;;;5020552;28;20487;-77
2022/11/17 06:18:00;;;;;;;49.35;25.83;;;;;;;;;;5014629;28;20046;-77
2022/11/17 06:20:48;;;;;;;35.03;19.05;;;;;;;;;;5014288;28;20045;-77
2022/11/17 06:23:34;;;;;;;30.15;18.88;;;;;;;;;;5014242;28;20045;-77
2022/11/17 06:26:20;;;;;;;30.55;17.60;;;;;;;;;;5020731;28;20050;-78
2022/11/17 06:29:08;;;;;;;41.38;20.63;;;;;;;;;;5013990;28;20042;-77
2022/11/17 06:31:56;;;;;;;35.05;20.20;;;;;;;;;;5013789;28;20042;-77
2022/11/17 06:34:44;;;;;;;29.23;17.85;;;;;;;;;;5019552;28;20038;-79
2022/11/17 06:37:29;;;;;;;23.23;16.08;;;;;;;;;;5013779;28;20041;-75
2022/11/17 06:40:16;;;;;;;29.90;17.48;;;;;;;;;;5020625;28;20053;-75
2022/11/17 06:43:08;;;;;;;25.20;16.80;;;;;;;;;;5013371;28;20042;-77
2022/11/17 06:45:54;;;;;;;36.42;21.88;;;;;;;;;;5014630;28;20038;-77
2022/11/17 06:48:40;;;;;;;33.78;22.30;;;;;;;;;;5014864;28;20046;-76
2022/11/17 06:51:25;;;;;;;36.78;22.13;;;;;;;;;;5013636;28;20395;-77
2022/11/17 06:54:11;;;;;;;36.30;23.25;;;;;;;;;;5014466;28;20053;-76
2022/11/17 06:56:56;;;;;;;54.38;30.52;;;;;;;;;;5018679;28;20034;-76
2022/11/17 06:59:41;;;;;;;79.32;35.05;;;;;;;;;;5011164;28;20075;-78
2022/11/17 07:02:26;;;;;;;57.45;30.27;;;;;;;;;;5019030;28;20046;-76
2022/11/17 07:05:12;;;;;;;47.85;29.98;;;;;;;;;;5026119;28;20041;-76
2022/11/17 07:07:58;;;;;;;50.38;29.55;;;;;;;;;;5020226;28;20046;-77
2022/11/17 07:10:44;;;;;;;55.10;31.95;;;;;;;;;;5019428;28;20045;-76
2022/11/17 07:13:32;;;;;;;63.17;37.13;;;;;;;;;;5018082;28;20046;-75
2022/11/17 07:16:20;;;;;;;118.35;60.03;;;;;;;;;;5020265;28;20046;-76
2022/11/17 07:19:07;;;;;;;90.53;49.97;;;;;;;;;;5024636;28;20487;-75
2022/11/17 07:21:52;;;;;;;81.75;47.97;;;;;;;;;;5024717;28;20046;-76
2022/11/17 07:24:38;;;;;;;46.55;30.95;;;;;;;;;;5017560;28;20042;-77
2022/11/17 07:27:23;;;;;;;43.17;30.85;;;;;;;;;;5017585;28;20049;-74
2022/11/17 07:30:10;;;;;;;44.95;28.40;;;;;;;;;;5017018;28;20045;-75
2022/11/17 07:32:58;;;;;;;40.35;27.80;;;;;;;;;;5016758;28;20042;-75
2022/11/17 07:35:44;;;;;;;38.80;27.75;;;;;;;;;;5023781;28;20050;-78
2022/11/17 07:38:33;;;;;;;51.00;29.73;;;;;;;;;;5023856;28;20045;-76
2022/11/17 07:41:19;;;;;;;55.13;35.65;;;;;;;;;;5016955;28;20398;-76
2022/11/17 07:44:05;;;;;;;58.78;39.55;;;;;;;;;;5017885;28;20042;-76
2022/11/17 07:46:50;;;;;;;57.20;34.67;;;;;;;;;;5023713;28;20050;-75
2022/11/17 07:49:36;;;;;;;66.70;39.70;;;;;;;;;;5023906;28;20042;-76
2022/11/17 07:52:22;;;;;;;74.05;44.08;;;;;;;;;;5017378;28;20046;-75
2022/11/17 07:55:08;;;;;;;75.32;43.03;;;;;;;;;;5016257;28;20042;-75
2022/11/17 07:57:57;;;;;;;86.88;49.72;;;;;;;;;;5016666;28;20399;-75
2022/11/17 08:00:42;;;;;;;143.10;75.43;;;;;;;;;;5016502;28;20042;-77
2022/11/17 08:03:28;;;;;;;153.27;78.75;;;;;;;;;;5017176;28;20046;-75
2022/11/17 08:06:14;;;;;;;132.95;75.88;;;;;;;;;;5016652;28;20046;-75
2022/11/17 08:08:59;;;;;;;118.07;74.75;;;;;;;;;;5016560;28;20038;-75
2022/11/17 08:11:45;;;;;;;100.88;58.30;;;;;;;;;;5017437;28;20373;-75
2022/11/17 08:14:29;;;;;;;91.40;53.47;;;;;;;;;;5016929;28;20041;-76
2022/11/17 08:17:16;;;;;;;81.85;45.95;;;;;;;;;;5022936;28;20050;-76
2022/11/17 08:20:03;;;;;;;60.35;37.60;;;;;;;;;;5016766;28;20038;-75
2022/11/17 08:22:49;;;;;;;61.58;37.10;;;;;;;;;;5016328;28;20049;-75
2022/11/17 08:25:35;;;;;;;73.82;41.05;;;;;;;;;;5016440;28;20045;-75
2022/11/17 08:28:21;;;;;;;60.60;36.95;;;;;;;;;;5023262;28;20093;-77
2022/11/17 08:31:06;;;;;;;61.03;37.05;;;;;;;;;;5015852;28;20053;-75
2022/11/17 08:33:51;;;;;;;68.72;38.75;;;;;;;;;;5016730;28;20046;-74
2022/11/17 08:36:36;;;;;;;66.07;41.90;;;;;;;;;;5015727;28;20046;-76
2022/11/17 08:39:21;;;;;;;65.93;39.25;;;;;;;;;;5016030;28;20121;-75
2022/11/17 08:42:06;;;;;;;65.38;42.20;;;;;;;;;;5015816;28;20046;-76
2022/11/17 08:44:52;;;;;;;91.88;50.15;;;;;;;;;;5021977;28;20375;-75
2022/11/17 08:47:38;;;;;;;81.65;44.92;;;;;;;;;;5015864;28;20045;-75
2022/11/17 08:50:23;;;;;;;77.60;46.55;;;;;;;;;;5014964;28;20046;-75
2022/11/17 08:53:17;;;;;;;62.00;39.33;;;;;;;;;;5023334;28;20054;-76
2022/11/17 08:56:07;;;;;;;50.33;34.72;;;;;;;;;;5015779;28;20042;-75
2022/11/17 08:58:53;;;;;;;53.17;32.13;;;;;;;;;;5024690;28;20041;-80
2022/11/17 09:01:39;;;;;;;43.53;29.70;;;;;;;;;;5021029;28;20046;-80
2022/11/17 09:04:24;;;;;;;40.92;27.60;;;;;;;;;;5019975;28;20037;-75
2022/11/17 09:07:10;;;;;;;39.00;26.17;;;;;;;;;;5018514;28;20062;-75
2022/11/17 09:09:55;;;;;;;40.70;27.05;;;;;;;;;;5025385;28;20395;-78
2022/11/17 09:12:40;;;;;;;37.03;25.33;;;;;;;;;;5024918;28;20050;-76
2022/11/17 09:15:25;;;;;;;42.17;25.25;;;;;;;;;;5018412;28;20053;-74
2022/11/17 09:18:11;;;;;;;38.65;26.98;;;;;;;;;;5024493;28;20050;-78
2022/11/17 09:21:05;;;;;;;35.97;25.25;;;;;;;;;;5014801;28;20479;-76
2022/11/17 09:23:51;;;;;;;38.88;27.48;;;;;;;;;;5015599;28;20057;-75
2022/11/17 09:26:39;;;;;;;48.67;29.20;;;;;;;;;;5014292;28;20045;-76
2022/11/17 09:29:24;;;;;;;45.90;30.15;;;;;;;;;;5015103;28;20038;-75
2022/11/17 09:32:10;;;;;;;38.53;23.27;;;;;;;;;;5015050;28;20049;-75
2022/11/17 09:34:55;;;;;;;32.70;22.83;;;;;;;;;;5014538;28;20053;-78
2022/11/17 09:37:41;;;;;;;33.45;22.08;;;;;;;;;;5014997;28;20050;-77
2022/11/17 09:40:27;;;;;;;33.70;22.25;;;;;;;;;;5020697;28;20054;-79
2022/11/17 09:43:22;;;;;;;35.35;24.17;;;;;;;;;;5014871;28;20057;-76
2022/11/17 09:46:22;;;;;;;36.60;23.55;;;;;;;;;;5014201;28;20042;-78
2022/11/17 09:49:19;;;;;;;39.20;27.38;;;;;;;;;;5013670;28;20046;-79
2022/11/17 09:52:14;;;;;;;36.15;24.90;;;;;;;;;;5014438;28;20050;-75
2022/11/17 09:55:14;;;;;;;53.22;26.33;;;;;;;;;;5014034;28;20042;-74
2022/11/17 09:58:17;;;;;;;38.22;26.67;;;;;;;;;;5014196;28;20041;-77
2022/11/17 10:01:02;;;;;;;42.08;26.50;;;;;;;;;;5014438;28;20058;-78
2022/11/17 10:03:49;;;;;;;43.55;26.73;;;;;;;;;;5020662;28;20042;-75
2022/11/17 10:06:36;;;;;;;40.50;26.75;;;;;;;;;;4992744;28;20045;-78
2022/11/17 10:09:49;;;;;;;38.10;25.95;;;;;;;;;;5013630;28;20041;-75
2022/11/17 10:12:40;;;;;;;40.50;25.50;;;;;;;;;;5020909;28;20050;-77
2022/11/17 10:15:36;;;;;;;38.13;24.95;;;;;;;;;;5014055;28;20053;-75
2022/11/17 10:18:22;;;;;;;42.00;26.88;;;;;;;;;;5014058;28;20475;-80
2022/11/17 10:21:08;;;;;;;34.30;22.77;;;;;;;;;;5006270;28;20423;-76
2022/11/17 10:23:57;;;;;;;37.80;25.85;;;;;;;;;;5013324;28;20042;-73
2022/11/17 10:26:46;;;;;;;33.45;24.35;;;;;;;;;;5020667;28;20038;-75
2022/11/17 10:29:31;;;;;;;42.80;24.88;;;;;;;;;;5013445;28;20046;-75
2022/11/17 10:32:17;;;;;;;28.08;16.75;;;;;;;;;;5013627;28;20053;-77
2022/11/17 10:35:22;;;;;;;21.23;16.10;;;;;;;;;;5014073;28;20423;-74
2022/11/17 10:38:19;;;;;;;26.88;17.70;;;;;;;;;;5019657;28;20050;-76
2022/11/17 10:41:04;;;;;;;25.10;15.32;;;;;;;;;;5014106;28;20487;-76
2022/11/17 10:44:04;;;;;;;21.85;14.38;;;;;;;;;;5013155;28;20046;-76
2022/11/17 10:46:56;;;;;;;25.98;16.90;;;;;;;;;;5013725;28;20053;-74
2022/11/17 10:49:41;;;;;;;24.95;17.88;;;;;;;;;;5013487;28;20050;-76
2022/11/17 10:52:27;;;;;;;17.83;13.63;;;;;;;;;;5013121;28;20042;-76
2022/11/17 10:55:24;;;;;;;18.05;12.77;;;;;;;;;;5013917;28;20042;-75
2022/11/17 10:58:24;;;;;;;19.30;11.90;;;;;;;;;;5013625;28;20050;-78
2022/11/17 11:01:10;;;;;;;13.93;10.65;;;;;;;;;;5013420;28;20042;-75
2022/11/17 11:03:55;;;;;;;15.68;11.00;;;;;;;;;;5013637;28;20042;-76
2022/11/17 11:06:41;;;;;;;19.63;12.00;;;;;;;;;;5012875;28;20054;-77
2022/11/17 11:09:28;;;;;;;19.05;12.70;;;;;;;;;;5013426;28;20483;-77
2022/11/17 11:12:20;;;;;;;9.55;6.57;;;;;;;;;;5019704;28;20042;-76
2022/11/17 11:15:12;;;;;;;13.35;6.32;;;;;;;;;;5019782;28;20042;-77
2022/11/17 11:17:58;;;;;;;8.15;4.95;;;;;;;;;;5013359;28;20042;-76
2022/11/17 11:21:01;;;;;;;9.10;5.20;;;;;;;;;;5019244;28;20045;-75
2022/11/17 11:24:11;;;;;;;18.02;11.60;;;;;;;;;;5013621;28;20054;-76
2022/11/17 11:27:05;;;;;;;4.65;1.90;;;;;;;;;;5012686;28;20045;-76
2022/11/17 11:30:01;;;;;;;6.68;2.20;;;;;;;;;;5013179;28;20046;-76
2022/11/17 11:33:06;;;;;;;7.82;2.70;;;;;;;;;;5013683;28;20034;-77
2022/11/17 11:36:20;;;;;;;13.57;3.00;;;;;;;;;;5012558;28;20050;-77
2022/11/17 11:39:31;;;;;;;6.20;2.63;;;;;;;;;;5006796;28;20050;-76
2022/11/17 11:42:48;;;;;;;7.32;2.58;;;;;;;;;;4988406;28;20049;-77
2022/11/17 11:45:32;;;;;;;;;;;;;;;;;;5017658;28;20042;-76
2022/11/17 11:48:32;;;;;;;4.32;2.78;;;;;;;;;;5015987;28;19917;-76
2022/11/17 11:51:23;;;;;;;7.53;2.85;;;;;;;;;;5016656;28;20049;-77
2022/11/17 11:54:14;;;;;;;17.10;5.90;;;;;;;;;;5008500;28;20045;-75
2022/11/17 11:57:00;;;;;;;6.68;3.95;;;;;;;;;;5016106;28;20046;-76
2022/11/17 11:59:53;;;;;;;5.63;3.72;;;;;;;;;;5023248;28;20050;-76
2022/11/17 12:02:50;;;;;;;9.07;4.50;;;;;;;;;;5015857;28;20395;-75
2022/11/17 12:05:54;;;;;;;5.43;2.40;;;;;;;;;;5023031;28;20057;-76
2022/11/17 12:08:48;;;;;;;5.72;2.95;;;;;;;;;;5016237;28;20050;-76
2022/11/17 12:14:37;;;;;;;6.68;3.80;;;;;;;;;;5016484;28;20046;-77
2022/11/17 12:17:25;;;;;;;5.25;3.13;;;;;;;;;;5016198;28;20042;-76
2022/11/17 12:20:38;;;;;;;5.63;2.55;;;;;;;;;;5016100;28;20491;-76
2022/11/17 12:23:36;;;;;;;4.45;2.70;;;;;;;;;;5015823;28;20053;-77
2022/11/17 12:26:28;;;;;;;5.30;2.40;;;;;;;;;;5016351;28;20479;-76
2022/11/17 12:29:20;;;;;;;4.15;2.30;;;;;;;;;;5022564;28;20049;-75
2022/11/17 12:32:06;;;;;;;4.32;2.92;;;;;;;;;;5015667;28;20046;-78
2022/11/17 12:35:21;;;;;;;2.45;1.83;;;;;;;;;;5016134;28;20041;-76
2022/11/17 12:38:16;;;;;;;5.20;1.80;;;;;;;;;;5014562;28;20050;-76
2022/11/17 12:41:01;;;;;;;4.07;2.30;;;;;;;;;;5015663;28;20423;-76
2022/11/17 12:43:46;;;;;;;8.07;2.65;;;;;;;;;;5007533;28;20483;-77
2022/11/17 12:46:32;;;;;;;3.05;2.20;;;;;;;;;;5021924;28;20050;-77
2022/11/17 12:49:30;;;;;;;4.40;2.65;;;;;;;;;;5015759;28;20042;-77
2022/11/17 12:52:26;;;;;;;62.33;46.40;;;;;;;;;;5021733;28;20045;-77
2022/11/17 12:55:26;;;;;;;4.57;2.10;;;;;;;;;;5015238;28;20400;-76
2022/11/17 12:58:24;;;;;;;76.07;56.60;;;;;;;;;;5015380;28;20046;-78
2022/11/17 13:01:12;;;;;;;81.10;55.25;;;;;;;;;;5015543;28;20049;-77
2022/11/17 13:04:17;;;;;;;7.18;3.47;;;;;;;;;;5015989;28;20050;-77
2022/11/17 13:07:06;;;;;;;3.50;1.83;;;;;;;;;;5021842;28;20049;-76
2022/11/17 13:09:57;;;;;;;3.75;2.00;;;;;;;;;;5015492;28;20037;-76
2022/11/17 13:12:43;;;;;;;23.90;13.27;;;;;;;;;;5015515;28;20042;-76
2022/11/17 13:15:28;;;;;;;6.35;4.43;;;;;;;;;;5021059;28;20038;-76
2022/11/17 13:18:32;;;;;;;11.38;6.22;;;;;;;;;;5015343;28;20486;-75
2022/11/17 13:21:23;;;;;;;12.63;8.40;;;;;;;;;;5014744;28;20050;-78
2022/11/17 13:24:09;;;;;;;5.72;3.17;;;;;;;;;;5015059;28;20046;-78
2022/11/17 13:26:59;;;;;;;9.93;6.20;;;;;;;;;;5014865;28;20395;-78
2022/11/17 13:29:45;;;;;;;8.52;4.93;;;;;;;;;;5014019;28;20487;-78
2022/11/17 13:32:30;;;;;;;6.78;3.85;;;;;;;;;;5021157;28;20042;-78
2022/11/17 13:35:26;;;;;;;10.88;5.75;;;;;;;;;;5021051;28;20399;-78
2022/11/17 13:38:22;;;;;;;10.13;5.57;;;;;;;;;;5014905;28;20588;-78
2022/11/17 13:41:09;;;;;;;9.43;4.70;;;;;;;;;;5021319;28;20045;-79
2022/11/17 13:43:55;;;;;;;10.13;5.07;;;;;;;;;;5013908;28;20475;-75
2022/11/17 13:46:40;;;;;;;9.85;5.95;;;;;;;;;;5014935;28;20421;-75
2022/11/17 13:49:37;;;;;;;13.07;8.57;;;;;;;;;;5014750;28;20065;-78
2022/11/17 13:52:34;;;;;;;15.02;9.65;;;;;;;;;;5020952;28;20046;-75
2022/11/17 13:55:21;;;;;;;10.43;6.75;;;;;;;;;;5014550;28;20049;-75
2022/11/17 13:58:18;;;;;;;11.40;7.03;;;;;;;;;;5013787;28;20391;-79
2022/11/17 14:01:03;;;;;;;19.10;10.73;;;;;;;;;;5020913;28;20479;-79
2022/11/17 14:03:49;;;;;;;21.38;12.40;;;;;;;;;;5020263;28;20037;-79
2022/11/17 14:06:58;;;;;;;20.45;11.65;;;;;;;;;;5020549;28;20053;-81
2022/11/17 14:09:43;;;;;;;17.05;10.57;;;;;;;;;;5014859;28;20050;-79
2022/11/17 14:12:28;;;;;;;18.30;11.35;;;;;;;;;;5013494;28;20050;-78
2022/11/17 14:15:21;;;;;;;20.80;11.90;;;;;;;;;;5020572;28;20038;-77
2022/11/17 14:18:30;;;;;;;30.48;14.27;;;;;;;;;;5013605;28;20387;-77
2022/11/17 14:21:16;;;;;;;19.90;9.73;;;;;;;;;;5005688;28;20344;-80
2022/11/17 14:24:10;;;;;;;19.80;11.70;;;;;;;;;;5013659;28;20049;-76
2022/11/17 14:26:56;;;;;;;19.63;10.60;;;;;;;;;;5013468;28;20042;-79
2022/11/17 14:29:42;;;;;;;17.52;10.27;;;;;;;;;;5013862;28;20411;-80
2022/11/17 14:32:27;;;;;;;21.20;13.55;;;;;;;;;;5019881;28;20042;-79
2022/11/17 14:35:14;;;;;;;31.58;20.15;;;;;;;;;;5014229;28;20058;-76
2022/11/17 14:38:00;;;;;;;24.70;15.77;;;;;;;;;;5014170;28;20049;-79
2022/11/17 14:40:48;;;;;;;21.92;14.40;;;;;;;;;;5019901;28;20050;-78
2022/11/17 14:43:33;;;;;;;44.47;30.13;;;;;;;;;;5013799;28;20141;-75
2022/11/17 14:46:20;;;;;;;38.55;27.00;;;;;;;;;;5013190;28;20042;-76
2022/11/17 14:49:06;;;;;;;33.08;21.20;;;;;;;;;;5013733;28;20487;-78
2022/11/17 14:51:52;;;;;;;22.55;13.38;;;;;;;;;;5013465;28;20045;-78
2022/11/17 14:54:37;;;;;;;19.45;12.25;;;;;;;;;;5013212;28;20049;-75
2022/11/17 14:57:23;;;;;;;29.52;18.25;;;;;;;;;;5013988;28;20046;-76
2022/11/17 15:00:09;;;;;;;36.95;21.88;;;;;;;;;;5013200;28;20049;-79
2022/11/17 15:02:54;;;;;;;36.85;22.52;;;;;;;;;;5012927;28;20049;-79
2022/11/17 15:05:45;;;;;;;34.60;19.10;;;;;;;;;;5013814;28;20406;-78
2022/11/17 15:08:30;;;;;;;40.35;25.70;;;;;;;;;;5013217;28;20487;-79
2022/11/17 15:11:17;;;;;;;47.17;28.05;;;;;;;;;;5013140;28;20050;-79
2022/11/17 15:14:03;;;;;;;57.17;31.35;;;;;;;;;;5011726;28;20066;-80
2022/11/17 15:16:49;;;;;;;41.35;24.65;;;;;;;;;;5015065;28;20459;-80
2022/11/17 15:19:36;;;;;;;37.45;21.58;;;;;;;;;;5019356;28;20045;-78
2022/11/17 15:22:21;;;;;;;137.75;77.63;;;;;;;;;;5023179;28;20049;-75
2022/11/17 15:25:07;;;;;;;89.20;47.08;;;;;;;;;;5016687;28;20052;-78
2022/11/17 15:27:53;;;;;;;71.78;40.55;;;;;;;;;;5015283;28;20053;-77
2022/11/17 15:30:38;;;;;;;93.88;39.83;;;;;;;;;;5015466;28;20487;-79
2022/11/17 15:33:24;;;;;;;111.82;54.78;;;;;;;;;;5016664;28;20042;-75
2022/11/17 15:36:15;;;;;;;171.20;79.43;;;;;;;;;;5022637;28;20034;-80
2022/11/17 15:39:00;;;;;;;171.02;79.60;;;;;;;;;;5016319;28;20042;-78
2022/11/17 15:41:47;;;;;;;189.63;95.85;;;;;;;;;;5023106;28;20042;-78
2022/11/17 15:44:33;;;;;;;229.18;115.75;;;;;;;;;;5015685;28;20344;-78
2022/11/17 15:47:18;;;;;;;176.35;86.53;;;;;;;;;;5016675;28;20050;-78
2022/11/17 15:50:04;;;;;;;152.07;78.07;;;;;;;;;;5016121;28;20050;-78
2022/11/17 15:52:50;;;;;;;163.52;80.55;;;;;;;;;;5016601;28;20058;-82
2022/11/17 15:55:35;;;;;;;96.97;53.50;;;;;;;;;;5016334;28;20047;-84
2022/11/17 15:58:21;;;;;;;120.07;61.05;;;;;;;;;;5015600;28;20042;-80
2022/11/17 16:01:09;;;;;;;125.18;62.40;;;;;;;;;;5016361;28;20372;-83
2022/11/17 16:04:09;;;;;;;112.85;56.70;;;;;;;;;;5018140;28;20050;-82
2022/11/17 16:06:53;;;;;;;103.65;53.53;;;;;;;;;;5016187;28;20054;-81
2022/11/17 16:09:39;;;;;;;96.38;52.70;;;;;;;;;;5016314;28;20049;-82
2022/11/17 16:12:24;;;;;;;66.57;38.80;;;;;;;;;;5015543;28;20053;-81
2022/11/17 16:15:10;;;;;;;255.45;136.35;;;;;;;;;;5016741;28;20042;-82
2022/11/17 16:17:56;;;;;;;459.63;280.52;;;;;;;;;;5016335;28;20045;-82
2022/11/17 16:20:41;;;;;;;103.00;66.93;;;;;;;;;;5022576;28;20479;-82
2022/11/17 16:23:27;;;;;;;63.35;37.95;;;;;;;;;;5016110;28;20042;-82
2022/11/17 16:26:15;;;;;;;48.88;30.08;;;;;;;;;;5015979;28;20045;-82
2022/11/17 16:29:03;;;;;;;49.90;31.30;;;;;;;;;;5015060;28;20046;-84
2022/11/17 16:31:47;;;;;;;104.25;55.75;;;;;;;;;;5015512;28;20045;-80
2022/11/17 16:34:35;;;;;;;52.78;35.22;;;;;;;;;;5015167;28;20053;-81
2022/11/17 16:37:20;;;;;;;46.65;30.17;;;;;;;;;;5015560;28;20038;-82
2022/11/17 16:40:06;;;;;;;41.63;27.65;;;;;;;;;;5014432;28;20058;-81
2022/11/17 16:42:51;;;;;;;40.25;27.55;;;;;;;;;;5015150;28;20034;-80
2022/11/17 16:45:43;;;;;;;32.75;22.33;;;;;;;;;;5014958;28;20483;-81
2022/11/17 16:48:32;;;;;;;35.60;22.95;;;;;;;;;;5021916;28;20050;-81
2022/11/17 16:51:18;;;;;;;49.20;30.30;;;;;;;;;;5000519;28;20042;-81
2022/11/17 16:54:05;;;;;;;63.88;38.05;;;;;;;;;;5015043;28;20045;-81
2022/11/17 16:56:51;;;;;;;54.00;36.67;;;;;;;;;;5015323;28;20041;-80
2022/11/17 16:59:38;;;;;;;64.78;44.17;;;;;;;;;;5015794;28;20053;-83